Time;durP1;ratioP1;P1;durP2;ratioP2;P2;SDS_P1;SDS_P2;PMS_P1;PMS_P2;Temp;Humidity;BMP_temperature;BMP_pressure;BME280_temperature;BME280_humidity;BME280_pressure;Samples;Min_cycle;Max_cycle;Signal;HPM_P1;HPM_P2
2022/12/10 00:02:42;;;;;;;4.88;2.00;;;;;;;-4.38;100.00;101119.84;10508445;28;20051;-79
2022/12/10 00:07:44;;;;;;;3.83;1.85;;;;;;;-4.41;100.00;101122.06;10501108;28;20045;-78
2022/12/10 00:12:45;;;;;;;0.00;0.00;;;;;;;-4.37;100.00;101119.09;10488143;28;20111;-78
2022/12/10 00:17:47;;;;;;;0.95;0.77;;;;;;;-4.43;100.00;101128.63;10505837;28;20037;-78
2022/12/10 00:22:49;;;;;;;0.90;0.90;;;;;;;-4.52;100.00;101122.00;10487747;28;20424;-78
2022/12/10 00:27:50;;;;;;;2.15;1.60;;;;;;;-4.48;100.00;101134.09;10486384;28;20499;-78
2022/12/10 00:32:52;;;;;;;0.88;0.55;;;;;;;-4.56;100.00;101136.69;10488213;28;20387;-77
2022/12/10 00:37:54;;;;;;;1.40;0.55;;;;;;;-4.45;100.00;101146.06;10487330;28;20047;-78
2022/12/10 00:42:55;;;;;;;0.10;0.10;;;;;;;-4.46;100.00;101135.13;10484809;28;20635;-78
2022/12/10 00:47:57;;;;;;;2.33;1.45;;;;;;;-4.49;100.00;101137.34;10484974;28;20044;-79
2022/12/10 00:52:59;;;;;;;0.65;0.65;;;;;;;-4.39;100.00;101145.72;10484871;28;20482;-79
2022/12/10 00:58:00;;;;;;;0.10;0.10;;;;;;;-4.34;100.00;101150.44;10484395;28;20040;-79
2022/12/10 01:03:02;;;;;;;2.08;1.48;;;;;;;-4.14;100.00;101158.88;10485921;28;20049;-78
2022/12/10 01:08:04;;;;;;;0.52;0.47;;;;;;;-4.15;100.00;101157.09;10484863;28;20064;-78
2022/12/10 01:13:05;;;;;;;0.93;0.70;;;;;;;-4.25;100.00;101159.56;10484795;28;20048;-79
2022/12/10 01:18:07;;;;;;;2.83;0.90;;;;;;;-4.23;100.00;101158.94;10484585;28;20096;-78
2022/12/10 01:23:09;;;;;;;1.88;1.75;;;;;;;-4.22;100.00;101169.88;10467564;28;20052;-79
2022/12/10 01:28:11;;;;;;;1.77;1.67;;;;;;;-4.28;100.00;101169.31;10484016;28;20045;-79
2022/12/10 01:33:13;;;;;;;0.93;0.90;;;;;;;-4.28;100.00;101171.84;10499874;28;20052;-78
2022/12/10 01:38:14;;;;;;;0.50;0.45;;;;;;;-4.32;100.00;101178.22;10482868;28;20442;-78
2022/12/10 01:43:16;;;;;;;0.80;0.80;;;;;;;-4.56;100.00;101177.78;10482585;28;20097;-78
2022/12/10 01:48:19;;;;;;;0.57;0.55;;;;;;;-4.53;100.00;101177.16;10490974;28;20060;-78
2022/12/10 01:53:21;;;;;;;0.75;0.75;;;;;;;-4.32;100.00;101184.13;10482616;28;20052;-79
2022/12/10 01:58:23;;;;;;;1.45;1.38;;;;;;;-4.31;100.00;101180.88;10483453;28;20091;-79
2022/12/10 02:04:00;;;;;;;1.08;0.98;;;;;;;-4.17;100.00;101186.28;10490248;28;20068;-79
2022/12/10 02:09:29;;;;;;;0.90;0.90;;;;;;;-4.35;100.00;101188.00;10457489;28;20072;-78
2022/12/10 02:15:03;;;;;;;0.88;0.70;;;;;;;-4.18;100.00;101187.91;10458795;28;20055;-79
2022/12/10 02:20:23;;;;;;;4.28;1.30;;;;;;;-4.17;100.00;101189.66;10465525;28;20400;-78
2022/12/10 02:25:51;;;;;;;1.00;0.55;;;;;;;-4.02;100.00;101184.22;10480944;28;20110;-79
2022/12/10 02:30:54;;;;;;;0.35;0.35;;;;;;;-4.07;100.00;101185.47;10464252;28;20086;-78
2022/12/10 02:35:58;;;;;;;0.50;0.50;;;;;;;-4.07;100.00;101185.47;10497361;28;20041;-79
2022/12/10 02:41:18;;;;;;;0.13;0.13;;;;;;;-3.91;100.00;101178.50;10456331;28;20381;-78
2022/12/10 02:46:22;;;;;;;1.08;1.02;;;;;;;-3.79;100.00;101180.34;10456774;28;20041;-79
2022/12/10 02:51:24;;;;;;;0.63;0.60;;;;;;;-3.60;100.00;101186.22;10456474;28;20139;-79
2022/12/10 02:56:54;;;;;;;0.90;0.63;;;;;;;-3.48;100.00;101191.47;10494646;28;20064;-78
2022/12/10 03:02:11;;;;;;;0.80;0.80;;;;;;;-3.40;100.00;101185.44;10479777;28;20044;-79
2022/12/10 03:07:23;;;;;;;1.73;1.45;;;;;;;-3.51;100.00;101182.00;10479896;28;20496;-78
2022/12/10 03:12:36;;;;;;;1.95;1.40;;;;;;;-3.50;100.00;101187.94;10463957;28;20101;-79
2022/12/10 03:17:40;;;;;;;0.88;0.85;;;;;;;-3.57;100.00;101186.50;10480896;28;20040;-79
2022/12/10 03:22:45;;;;;;;6.22;1.50;;;;;;;-3.55;100.00;101192.56;10479318;28;20048;-79
2022/12/10 03:27:51;;;;;;;2.22;1.23;;;;;;;-3.57;100.00;101189.03;10479180;28;20064;-79
2022/12/10 03:32:53;;;;;;;0.30;0.30;;;;;;;-3.68;100.00;101187.19;10500449;28;20040;-80
2022/12/10 03:37:55;;;;;;;1.23;0.90;;;;;;;-3.64;100.00;101188.34;10461062;28;20090;-80
2022/12/10 03:42:57;;;;;;;4.38;0.63;;;;;;;-3.58;100.00;101189.78;10487106;28;20509;-80
2022/12/10 03:47:59;;;;;;;0.25;0.25;;;;;;;-3.75;100.00;101194.97;10490930;28;20047;-80
2022/12/10 03:53:01;;;;;;;2.17;1.85;;;;;;;-3.80;100.00;101194.59;10498569;28;20121;-79
2022/12/10 03:58:02;;;;;;;2.03;0.90;;;;;;;-3.74;100.00;101186.66;10486377;28;20094;-79
2022/12/10 04:03:04;;;;;;;0.30;0.30;;;;;;;-3.78;100.00;101190.53;10485958;28;20095;-79
2022/12/10 04:08:06;;;;;;;0.73;0.73;;;;;;;-3.78;100.00;101188.03;10485798;28;20144;-78
2022/12/10 04:18:28;;;;;;;2.13;1.40;;;;;;;-3.89;100.00;101207.22;10469375;28;20040;-79
2022/12/10 04:28:49;;;;;;;1.63;1.52;;;;;;;-3.86;100.00;101207.50;10503539;28;20041;-79
2022/12/10 04:33:51;;;;;;;2.03;1.90;;;;;;;-3.94;100.00;101218.53;10470822;28;20083;-79
2022/12/10 04:38:53;;;;;;;1.65;1.48;;;;;;;-3.93;100.00;101212.75;10484849;28;20040;-79
2022/12/10 04:43:54;;;;;;;1.52;1.42;;;;;;;-3.95;100.00;101210.84;10484624;28;20454;-79
2022/12/10 04:48:56;;;;;;;1.73;1.63;;;;;;;-4.00;100.00;101223.03;10465050;28;20488;-79
2022/12/10 04:53:58;;;;;;;3.70;2.55;;;;;;;-4.05;100.00;101214.16;10443499;28;20052;-80
2022/12/10 04:59:01;;;;;;;2.83;0.60;;;;;;;-4.32;100.00;101221.00;10477687;28;20522;-79
2022/12/10 05:04:05;;;;;;;1.55;1.42;;;;;;;-4.39;100.00;101217.03;10484626;28;20569;-79
2022/12/10 05:09:09;;;;;;;1.33;1.23;;;;;;;-4.47;100.00;101218.00;10486107;28;20119;-79
2022/12/10 05:14:12;;;;;;;1.15;1.05;;;;;;;-4.33;100.00;101229.28;10507783;28;20055;-79
2022/12/10 05:19:14;;;;;;;1.90;1.45;;;;;;;-4.33;100.00;101221.75;10483489;28;20094;-79
2022/12/10 05:24:17;;;;;;;2.83;1.25;;;;;;;-4.43;100.00;101214.13;10447770;28;20090;-78
2022/12/10 05:29:19;;;;;;;6.88;2.58;;;;;;;-4.65;100.00;101223.09;10444065;28;20393;-79
2022/12/10 05:34:23;;;;;;;0.88;0.88;;;;;;;-4.74;100.00;101228.91;10468284;28;20091;-79
2022/12/10 05:39:27;;;;;;;0.70;0.70;;;;;;;-4.57;100.00;101231.31;10501057;28;20036;-78
2022/12/10 05:44:29;;;;;;;1.38;0.88;;;;;;;-4.60;100.00;101230.16;10483017;28;20055;-78
2022/12/10 05:56:27;;;;;;;0.47;0.47;;;;;;;-4.79;100.00;101236.91;10492587;28;20116;-79
2022/12/10 06:01:32;;;;;;;0.35;0.35;;;;;;;-4.83;100.00;101242.41;10482626;28;20102;-78
2022/12/10 06:06:36;;;;;;;1.95;1.85;;;;;;;-4.67;100.00;101244.69;10481935;28;20097;-78
2022/12/10 06:11:38;;;;;;;0.98;0.95;;;;;;;-4.79;100.00;101243.56;10497475;28;20095;-78
2022/12/10 06:16:41;;;;;;;1.88;1.75;;;;;;;-4.75;100.00;101234.69;10463925;28;20506;-78
2022/12/10 06:21:43;;;;;;;0.40;0.40;;;;;;;-4.76;100.00;101237.94;10471241;28;20495;-79
2022/12/10 06:26:48;;;;;;;0.43;0.43;;;;;;;-4.71;100.00;101252.72;10461652;28;20044;-78
2022/12/10 06:31:57;;;;;;;3.35;1.45;;;;;;;-4.63;100.00;101255.91;10497919;28;20055;-78
2022/12/10 06:36:59;;;;;;;0.63;0.63;;;;;;;-4.49;100.00;101253.03;10479501;28;20102;-79
2022/12/10 06:42:01;;;;;;;0.85;0.82;;;;;;;-4.47;100.00;101258.22;10485632;28;20403;-78
2022/12/10 06:47:03;;;;;;;1.60;1.50;;;;;;;-4.49;100.00;101270.63;10479433;28;20492;-79
2022/12/10 06:52:06;;;;;;;0.63;0.57;;;;;;;-4.55;100.00;101270.09;10479485;28;20041;-80
2022/12/10 06:57:08;;;;;;;0.40;0.40;;;;;;;-4.53;100.00;101267.69;10462497;28;20076;-80
2022/12/10 07:02:10;;;;;;;1.83;1.63;;;;;;;-4.71;100.00;101275.34;10502006;28;20044;-79
2022/12/10 07:07:11;;;;;;;1.38;1.27;;;;;;;-4.57;100.00;101280.75;10480036;28;20047;-79
2022/12/10 07:12:13;;;;;;;1.30;0.50;;;;;;;-4.55;100.00;101285.16;10467795;28;20044;-80
2022/12/10 07:17:30;;;;;;;1.17;1.10;;;;;;;-4.50;100.00;101293.16;10479081;28;20052;-79
2022/12/10 07:22:32;;;;;;;1.35;1.25;;;;;;;-4.32;100.00;101307.41;10476377;28;20562;-78
2022/12/10 07:27:33;;;;;;;0.68;0.68;;;;;;;-4.31;100.00;101310.81;10484397;28;20060;-78
2022/12/10 07:32:35;;;;;;;11.80;2.13;;;;;;;-4.20;100.00;101316.84;10493056;28;20041;-78
2022/12/10 07:37:37;;;;;;;1.73;1.63;;;;;;;-4.13;100.00;101321.69;10488374;28;20040;-79
2022/12/10 07:42:38;;;;;;;2.13;1.95;;;;;;;-4.01;100.00;101325.31;10502463;28;20040;-79
2022/12/10 07:47:40;;;;;;;1.63;1.27;;;;;;;-3.93;100.00;101335.19;10483436;28;20084;-79
2022/12/10 07:52:41;;;;;;;0.25;0.25;;;;;;;-3.89;100.00;101338.13;10519740;28;20074;-79
2022/12/10 07:57:43;;;;;;;0.68;0.57;;;;;;;-3.85;100.00;101340.19;10485884;28;20090;-78
2022/12/10 08:02:45;;;;;;;5.82;3.28;;;;;;;-3.73;100.00;101355.53;10474797;28;20044;-79
2022/12/10 08:07:46;;;;;;;2.25;2.00;;;;;;;-3.73;100.00;101364.69;10479167;28;20055;-80
2022/12/10 08:12:50;;;;;;;6.07;1.38;;;;;;;-3.85;100.00;101380.47;10499306;28;20091;-80
2022/12/10 08:17:59;;;;;;;0.63;0.60;;;;;;;-3.85;100.00;101385.50;10517490;28;20040;-80
2022/12/10 08:23:00;;;;;;;1.63;1.02;;;;;;;-3.73;100.00;101394.91;10506043;28;20052;-79
2022/12/10 08:28:03;;;;;;;0.52;0.52;;;;;;;-3.67;100.00;101392.94;10486715;28;20048;-80
2022/12/10 08:33:05;;;;;;;1.35;1.02;;;;;;;-3.61;100.00;101401.06;10502236;28;20045;-80
2022/12/10 08:38:06;;;;;;;0.88;0.70;;;;;;;-3.42;100.00;101411.16;10483627;28;20045;-79
2022/12/10 08:43:08;;;;;;;4.32;3.03;;;;;;;-3.45;100.00;101420.09;10484834;28;20079;-80
2022/12/10 08:48:10;;;;;;;1.70;1.58;;;;;;;-3.30;100.00;101444.16;10492318;28;20033;-79
2022/12/10 08:53:11;;;;;;;2.15;2.03;;;;;;;-3.31;100.00;101452.44;10482909;28;20052;-79
2022/12/10 08:58:13;;;;;;;8.98;1.52;;;;;;;-3.29;100.00;101450.97;10484035;28;20495;-79
2022/12/10 09:03:15;;;;;;;0.95;0.77;;;;;;;-3.39;100.00;101463.50;10471525;28;20048;-79
2022/12/10 09:08:17;;;;;;;0.70;0.70;;;;;;;-3.25;100.00;101460.59;10485509;28;20044;-80
2022/12/10 09:13:18;;;;;;;0.38;0.38;;;;;;;-3.26;100.00;101461.34;10485381;28;20118;-80
2022/12/10 09:18:30;;;;;;;1.55;1.35;;;;;;;-3.26;100.00;101471.41;10509201;28;20106;-79
2022/12/10 09:23:32;;;;;;;1.23;1.17;;;;;;;-3.13;100.00;101464.94;10481225;28;20507;-80
2022/12/10 09:28:36;;;;;;;0.45;0.43;;;;;;;-3.24;100.00;101479.97;10442868;28;1081497;-79
2022/12/10 09:33:39;;;;;;;1.40;0.98;;;;;;;-3.25;100.00;101488.31;10483329;28;20056;-79
2022/12/10 09:38:43;;;;;;;1.63;1.02;;;;;;;-3.21;100.00;101495.38;10464329;28;20082;-80
2022/12/10 09:43:51;;;;;;;0.50;0.50;;;;;;;-3.11;100.00;101502.16;10468594;28;20411;-79
2022/12/10 09:49:21;;;;;;;0.93;0.68;;;;;;;-3.05;100.00;101506.84;10465352;28;20106;-80
2022/12/10 09:54:56;;;;;;;4.13;2.28;;;;;;;-3.06;100.00;101502.56;10464977;28;20561;-80
2022/12/10 10:00:18;;;;;;;1.50;1.23;;;;;;;-3.12;100.00;101512.97;10480127;28;20496;-81
2022/12/10 10:05:24;;;;;;;0.63;0.32;;;;;;;-2.99;100.00;101516.63;10464382;28;20405;-80
2022/12/10 10:10:30;;;;;;;2.72;2.20;;;;;;;-2.93;100.00;101523.09;10486145;28;20049;-80
2022/12/10 10:15:35;;;;;;;2.00;1.80;;;;;;;-2.85;100.00;101512.78;10487643;28;20044;-78
2022/12/10 10:20:37;;;;;;;1.23;1.15;;;;;;;-2.80;100.00;101509.06;10473829;28;20381;-80
2022/12/10 10:25:39;;;;;;;0.75;0.47;;;;;;;-2.85;100.00;101515.31;10489849;28;20405;-80
2022/12/10 10:30:44;;;;;;;3.13;1.75;;;;;;;-2.75;100.00;101522.97;10483775;28;20051;-81
2022/12/10 10:35:55;;;;;;;2.47;1.75;;;;;;;-2.62;100.00;101537.56;10525838;28;20056;-81
2022/12/10 10:40:59;;;;;;;0.38;0.38;;;;;;;-2.72;100.00;101548.47;10501511;28;20041;-81
2022/12/10 10:46:07;;;;;;;1.67;0.65;;;;;;;-2.72;100.00;101551.00;10496965;28;20545;-81
2022/12/10 10:51:12;;;;;;;1.77;1.65;;;;;;;-2.66;100.00;101543.06;10533767;28;20047;-81
2022/12/10 10:56:22;;;;;;;1.08;1.05;;;;;;;-2.68;100.00;101550.50;10496053;28;20050;-81
2022/12/10 11:01:42;;;;;;;3.25;1.60;;;;;;;-2.52;100.00;101547.72;10480938;28;20059;-81
2022/12/10 11:06:44;;;;;;;4.40;1.40;;;;;;;-2.45;100.00;101554.19;10499128;28;20037;-81
2022/12/10 11:11:52;;;;;;;1.60;1.50;;;;;;;-2.47;100.00;101555.69;10498334;28;20052;-81
2022/12/10 11:17:04;;;;;;;0.93;0.57;;;;;;;-2.47;100.00;101551.56;10481879;28;20053;-81
2022/12/10 11:22:21;;;;;;;1.70;1.33;;;;;;;-2.42;100.00;101544.41;10497336;28;20052;-82
2022/12/10 11:27:51;;;;;;;1.45;1.10;;;;;;;-2.34;100.00;101548.44;10497594;28;20044;-81
2022/12/10 11:33:25;;;;;;;2.92;2.20;;;;;;;-2.37;100.00;101547.28;10493205;28;20059;-81
2022/12/10 11:38:39;;;;;;;0.65;0.32;;;;;;;-2.24;100.00;101548.53;10441424;28;20048;-81
2022/12/10 11:44:23;;;;;;;1.83;1.55;;;;;;;-2.27;100.00;101535.63;10479063;28;20040;-81
2022/12/10 11:49:37;;;;;;;2.78;2.58;;;;;;;-2.30;100.00;101530.31;10492033;28;20052;-82
2022/12/10 11:55:17;;;;;;;5.18;1.13;;;;;;;-2.31;100.00;101538.63;10488491;28;20487;-82
2022/12/10 12:00:23;;;;;;;0.65;0.65;;;;;;;-2.17;100.00;101547.44;10445683;28;20128;-82
2022/12/10 12:05:51;;;;;;;0.90;0.90;;;;;;;-2.22;100.00;101532.63;10463191;28;20135;-82
2022/12/10 12:11:12;;;;;;;0.28;0.28;;;;;;;-2.18;100.00;101537.19;10511268;28;20045;-82
2022/12/10 12:16:29;;;;;;;;;;;;;;;-2.16;100.00;101536.56;10503361;28;20133;-81
2022/12/10 12:21:31;;;;;;;0.77;0.75;;;;;;;-2.05;100.00;101537.53;10519475;28;20359;-82
2022/12/10 12:26:39;;;;;;;0.60;0.40;;;;;;;-2.05;100.00;101536.63;10522237;28;20036;-82
2022/12/10 12:31:52;;;;;;;2.75;1.58;;;;;;;-2.06;100.00;101535.75;10493977;28;20048;-82
2022/12/10 12:36:55;;;;;;;1.17;0.80;;;;;;;-1.95;100.00;101540.06;10491533;28;20075;-82
2022/12/10 12:42:17;;;;;;;1.20;0.75;;;;;;;-1.86;100.00;101544.16;10502861;28;20400;-84
2022/12/10 12:47:28;;;;;;;0.50;0.50;;;;;;;-1.83;100.00;101545.28;10491557;28;20036;-85
2022/12/10 12:52:56;;;;;;;1.27;0.55;;;;;;;-1.88;100.00;101548.16;10507858;28;20052;-85
2022/12/10 12:58:19;;;;;;;9.57;1.88;;;;;;;-1.95;100.00;101554.34;10489383;28;20067;-85
2022/12/10 13:03:34;;;;;;;2.05;1.15;;;;;;;-1.87;100.00;101549.94;10479165;28;20132;-83
2022/12/10 13:08:43;;;;;;;0.25;0.25;;;;;;;-1.93;100.00;101548.66;10467285;28;20237;-84
2022/12/10 13:14:06;;;;;;;1.83;1.23;;;;;;;-1.98;100.00;101560.03;10476672;28;20079;-85
2022/12/10 13:19:20;;;;;;;2.33;0.98;;;;;;;-1.97;100.00;101561.78;10478338;28;20068;-84
2022/12/10 13:24:58;;;;;;;0.45;0.45;;;;;;;-1.87;100.00;101558.44;10485467;28;20406;-84
2022/12/10 13:30:12;;;;;;;0.35;0.35;;;;;;;-1.94;100.00;101556.13;10460679;28;20555;-84
2022/12/10 13:35:31;;;;;;;2.88;1.85;;;;;;;-2.06;100.00;101555.94;10482575;28;20139;-84
2022/12/10 13:46:28;;;;;;;2.05;1.92;;;;;;;-2.00;100.00;101564.03;10505516;28;20041;-84
2022/12/10 13:51:51;;;;;;;0.93;0.88;;;;;;;-2.07;100.00;101562.63;10481338;28;20048;-83
2022/12/10 13:57:08;;;;;;;0.70;0.70;;;;;;;-2.08;100.00;101565.00;10514947;28;20474;-83
2022/12/10 14:02:36;;;;;;;2.63;2.08;;;;;;;-2.02;100.00;101575.66;10498756;28;20068;-82
2022/12/10 14:07:47;;;;;;;0.98;0.95;;;;;;;-2.09;100.00;101583.44;10487407;28;20426;-82
2022/12/10 14:13:01;;;;;;;;;;;;;;;-2.11;100.00;101588.34;10473998;28;20109;-82
2022/12/10 14:18:11;;;;;;;0.67;0.67;;;;;;;-2.19;100.00;101594.38;10481624;28;19924;-83
2022/12/10 14:23:33;;;;;;;0.10;0.10;;;;;;;-2.03;100.00;101600.78;10483771;28;20579;-83
2022/12/10 14:28:41;;;;;;;4.25;1.38;;;;;;;-2.16;100.00;101601.31;10484025;28;20040;-82
2022/12/10 14:33:48;;;;;;;0.60;0.60;;;;;;;-2.35;100.00;101597.19;10478556;28;20041;-82
2022/12/10 14:38:52;;;;;;;0.53;0.53;;;;;;;-2.29;100.00;101604.38;10474216;28;20510;-83
2022/12/10 14:43:54;;;;;;;1.10;1.10;;;;;;;-2.37;100.00;101613.81;10496626;28;20076;-83
2022/12/10 14:48:56;;;;;;;0.20;0.20;;;;;;;-2.20;100.00;101611.91;10494275;28;20048;-82
2022/12/10 14:54:03;;;;;;;1.30;0.88;;;;;;;-2.31;100.00;101613.47;10485007;28;20036;-82
2022/12/10 14:59:17;;;;;;;2.50;1.55;;;;;;;-2.38;100.00;101614.56;10487117;28;20040;-82
2022/12/10 15:04:20;;;;;;;1.02;0.75;;;;;;;-2.33;100.00;101610.81;10425547;28;20110;-81
2022/12/10 15:09:30;;;;;;;0.70;0.70;;;;;;;-2.38;100.00;101612.03;10485139;28;20040;-83
2022/12/10 15:14:32;;;;;;;1.60;1.00;;;;;;;-2.24;100.00;101614.16;10489442;28;20098;-83
2022/12/10 15:19:35;;;;;;;1.90;1.45;;;;;;;-2.21;100.00;101636.25;10469329;28;20033;-83
2022/12/10 15:24:40;;;;;;;2.50;1.55;;;;;;;-2.14;100.00;101632.66;10465995;28;20094;-83
2022/12/10 15:29:43;;;;;;;0.38;0.38;;;;;;;-2.16;100.00;101624.91;10480142;28;20400;-83
2022/12/10 15:35:00;;;;;;;0.93;0.93;;;;;;;-2.13;100.00;101624.31;10513124;28;20040;-83
2022/12/10 15:40:27;;;;;;;0.55;0.55;;;;;;;-2.14;100.00;101623.41;10502825;28;20176;-83
2022/12/10 15:45:49;;;;;;;0.47;0.47;;;;;;;-2.14;100.00;101630.13;10470068;28;20476;-85
2022/12/10 15:50:51;;;;;;;1.77;0.17;;;;;;;-2.05;100.00;101635.09;10462331;28;20122;-85
2022/12/10 15:55:56;;;;;;;2.10;1.58;;;;;;;-2.03;100.00;101633.59;10496743;28;20055;-85
2022/12/10 16:00:58;;;;;;;1.13;1.00;;;;;;;-2.01;100.00;101635.50;10474137;28;20484;-84
2022/12/10 16:06:01;;;;;;;0.22;0.22;;;;;;;-2.05;100.00;101640.13;10483084;28;20032;-84
2022/12/10 16:11:16;;;;;;;3.40;1.42;;;;;;;-2.11;100.00;101658.16;10493752;28;20048;-84
2022/12/10 16:16:19;;;;;;;0.20;0.20;;;;;;;-2.07;100.00;101658.56;10454721;28;20052;-84
2022/12/10 16:21:22;;;;;;;4.35;2.38;;;;;;;-1.98;100.00;101665.19;10492567;28;20048;-83
2022/12/10 16:26:27;;;;;;;1.25;1.02;;;;;;;-2.02;100.00;101689.28;10496926;28;20057;-82
2022/12/10 16:31:29;;;;;;;1.75;1.10;;;;;;;-1.93;100.00;101697.69;10489390;28;20503;-84
2022/12/10 16:36:32;;;;;;;0.22;0.22;;;;;;;-1.93;100.00;101691.72;10486883;28;20125;-84
2022/12/10 16:41:34;;;;;;;0.63;0.63;;;;;;;-1.97;100.00;101688.03;10488445;28;20079;-85
2022/12/10 16:46:36;;;;;;;6.60;2.00;;;;;;;-2.08;100.00;101693.78;10495284;28;20093;-84
2022/12/10 16:51:42;;;;;;;3.50;0.68;;;;;;;-2.09;100.00;101692.00;10494057;28;20480;-84
2022/12/10 16:56:45;;;;;;;1.73;1.30;;;;;;;-2.10;100.00;101685.19;10498352;28;20523;-84
2022/12/10 17:01:49;;;;;;;0.20;0.20;;;;;;;-2.16;100.00;101682.09;10502554;28;20090;-84
2022/12/10 17:06:50;;;;;;;2.38;1.10;;;;;;;-2.26;100.00;101686.31;10490964;28;20488;-83
2022/12/10 17:11:54;;;;;;;6.40;2.25;;;;;;;-2.11;100.00;101693.50;10512040;28;20052;-83
2022/12/10 17:16:59;;;;;;;5.00;2.25;;;;;;;-2.13;100.00;101706.00;10474858;28;20049;-83
2022/12/10 17:22:02;;;;;;;1.02;1.00;;;;;;;-2.12;100.00;101702.72;10485160;28;20644;-83
2022/12/10 17:27:09;;;;;;;0.40;0.40;;;;;;;-2.07;100.00;101715.78;10504511;28;20041;-85
2022/12/10 17:32:13;;;;;;;0.10;0.10;;;;;;;-2.02;100.00;101719.59;10487568;28;20044;-84
2022/12/10 17:37:17;;;;;;;0.35;0.35;;;;;;;-2.09;100.00;101717.25;10459300;28;20049;-84
2022/12/10 17:42:23;;;;;;;0.00;0.00;;;;;;;-2.12;100.00;101716.97;10466185;28;20086;-84
2022/12/10 17:47:25;;;;;;;2.75;1.85;;;;;;;-2.04;100.00;101715.16;10465797;28;20032;-84
2022/12/10 17:52:27;;;;;;;0.20;0.20;;;;;;;-2.13;100.00;101708.53;10461445;28;20106;-84
2022/12/10 17:57:29;;;;;;;0.32;0.32;;;;;;;-2.20;100.00;101710.38;10474378;28;20039;-84
2022/12/10 18:02:31;;;;;;;0.35;0.35;;;;;;;-2.22;100.00;101704.28;10460430;28;20041;-84
2022/12/10 18:07:34;;;;;;;1.33;0.73;;;;;;;-2.17;100.00;101706.47;10456621;28;20158;-84
2022/12/10 18:12:38;;;;;;;0.95;0.50;;;;;;;-2.24;100.00;101707.56;10451683;28;20043;-85
2022/12/10 18:17:41;;;;;;;0.38;0.38;;;;;;;-2.17;100.00;101698.00;10468079;28;20036;-84
2022/12/10 18:22:43;;;;;;;2.30;2.05;;;;;;;-2.21;100.00;101711.13;10448103;28;20516;-84
2022/12/10 18:27:45;;;;;;;0.77;0.68;;;;;;;-2.27;100.00;101707.25;10463694;28;20450;-84
2022/12/10 18:32:47;;;;;;;0.20;0.20;;;;;;;-2.16;100.00;101714.94;10466218;28;20045;-84
2022/12/10 18:37:51;;;;;;;2.20;1.75;;;;;;;-2.15;100.00;101712.53;10470547;28;20083;-84
2022/12/10 18:42:53;;;;;;;1.33;1.23;;;;;;;-2.25;100.00;101712.47;10481287;28;20135;-83
2022/12/10 18:47:55;;;;;;;0.35;0.35;;;;;;;-2.29;100.00;101713.84;10503158;28;20044;-85
2022/12/10 18:52:59;;;;;;;0.63;0.63;;;;;;;-2.32;100.00;101727.81;10476219;28;20050;-84
2022/12/10 18:58:01;;;;;;;1.23;1.10;;;;;;;-2.29;100.00;101725.53;10481715;28;20537;-85
2022/12/10 19:03:07;;;;;;;2.83;2.28;;;;;;;-2.29;100.00;101713.84;10486605;28;20071;-85
2022/12/10 19:08:11;;;;;;;0.40;0.40;;;;;;;-2.22;100.00;101716.91;10498054;28;20048;-85
2022/12/10 19:13:13;;;;;;;0.15;0.15;;;;;;;-2.23;100.00;101723.56;10490429;28;20044;-85
2022/12/10 19:18:17;;;;;;;0.38;0.38;;;;;;;-2.19;100.00;101724.75;10535314;28;20406;-85
2022/12/10 19:23:19;;;;;;;0.25;0.25;;;;;;;-2.18;100.00;101717.31;10509363;28;20411;-84
2022/12/10 19:28:21;;;;;;;0.25;0.25;;;;;;;-2.09;100.00;101723.22;10480395;28;20123;-85
2022/12/10 19:33:24;;;;;;;0.57;0.35;;;;;;;-2.07;100.00;101720.81;10469564;28;20052;-84
2022/12/10 19:38:26;;;;;;;1.20;1.10;;;;;;;-2.16;100.00;101730.94;10481325;28;20044;-85
2022/12/10 19:43:28;;;;;;;0.35;0.35;;;;;;;-2.16;100.00;101725.91;10455844;28;20044;-85
2022/12/10 19:48:30;;;;;;;0.47;0.47;;;;;;;-2.14;100.00;101724.41;10486250;28;20068;-85
2022/12/10 19:53:40;;;;;;;1.17;1.10;;;;;;;-2.18;100.00;101724.00;10488006;28;20054;-80
2022/12/10 19:58:42;;;;;;;0.35;0.35;;;;;;;-2.14;100.00;101723.53;10489832;28;20087;-82
2022/12/10 20:03:44;;;;;;;0.17;0.17;;;;;;;-2.08;100.00;101729.13;10490570;28;20106;-81
2022/12/10 20:08:47;;;;;;;0.17;0.17;;;;;;;-2.11;100.00;101734.81;10475335;28;20051;-82
2022/12/10 20:13:49;;;;;;;2.70;1.30;;;;;;;-2.09;100.00;101732.41;10474378;28;20048;-82
2022/12/10 20:18:53;;;;;;;0.15;0.15;;;;;;;-2.05;100.00;101736.09;10503167;28;20041;-82
2022/12/10 20:23:57;;;;;;;2.28;1.38;;;;;;;-2.09;100.00;101737.47;10511144;28;20028;-82
2022/12/10 20:29:27;;;;;;;0.00;0.00;;;;;;;-2.05;100.00;101738.63;10511142;28;20047;-83
2022/12/10 20:34:34;;;;;;;0.57;0.57;;;;;;;-1.99;100.00;101740.06;10517401;28;20040;-83
2022/12/10 20:39:36;;;;;;;0.25;0.25;;;;;;;-1.96;100.00;101740.34;10511859;28;20044;-82
2022/12/10 20:44:37;;;;;;;0.10;0.10;;;;;;;-2.04;100.00;101743.81;10490417;28;20144;-82
2022/12/10 20:49:40;;;;;;;1.77;1.52;;;;;;;-2.02;100.00;101749.88;10497173;28;20037;-82
2022/12/10 20:54:41;;;;;;;3.83;1.08;;;;;;;-2.10;100.00;101750.81;10512541;28;20071;-82
2022/12/10 20:59:43;;;;;;;0.38;0.38;;;;;;;-1.99;100.00;101744.22;10485540;28;20127;-82
2022/12/10 21:04:50;;;;;;;0.00;0.00;;;;;;;-2.03;100.00;101758.22;10486544;28;20087;-82
2022/12/10 21:09:52;;;;;;;0.45;0.45;;;;;;;-1.89;100.00;101751.88;10487523;28;20040;-82
2022/12/10 21:14:54;;;;;;;1.80;1.08;;;;;;;-1.83;100.00;101757.47;10492013;28;20048;-82
2022/12/10 21:20:05;;;;;;;1.48;1.35;;;;;;;-1.84;100.00;101754.81;10490663;28;20072;-82
2022/12/10 21:25:10;;;;;;;0.77;0.73;;;;;;;-1.84;100.00;101754.81;10489362;28;20400;-83
2022/12/10 21:37:08;;;;;;;1.00;0.85;;;;;;;-1.88;100.00;101753.66;10508567;28;20048;-83
2022/12/10 21:47:33;;;;;;;1.30;1.02;;;;;;;-1.98;100.00;101761.16;10496520;28;20044;-84
2022/12/10 21:52:35;;;;;;;0.00;0.00;;;;;;;-1.96;100.00;101760.53;10493657;28;20491;-83
2022/12/10 21:57:42;;;;;;;0.80;0.45;;;;;;;-2.01;100.00;101751.66;10497485;28;20135;-83
2022/12/10 22:02:49;;;;;;;1.30;0.63;;;;;;;-2.01;100.00;101756.72;10501137;28;20408;-83
2022/12/10 22:07:51;;;;;;;0.38;0.38;;;;;;;-2.02;100.00;101760.00;10495017;28;20051;-83
2022/12/10 22:12:56;;;;;;;0.20;0.20;;;;;;;-1.97;100.00;101767.97;10493427;28;20048;-83
2022/12/10 22:18:06;;;;;;;0.30;0.30;;;;;;;-2.00;100.00;101757.59;10501450;28;20476;-83
2022/12/10 22:23:15;;;;;;;0.68;0.68;;;;;;;-1.93;100.00;101750.72;10501496;28;20385;-82
2022/12/10 22:28:17;;;;;;;0.30;0.30;;;;;;;-1.93;100.00;101758.31;10494031;28;20507;-83
2022/12/10 22:33:19;;;;;;;0.52;0.52;;;;;;;-1.88;100.00;101763.78;10484887;28;20568;-83
2022/12/10 22:38:23;;;;;;;1.65;0.75;;;;;;;-1.89;100.00;101763.59;10506699;28;20399;-82
2022/12/10 22:43:25;;;;;;;0.20;0.20;;;;;;;-1.88;100.00;101757.81;10499244;28;20056;-82
2022/12/10 22:48:50;;;;;;;1.52;1.42;;;;;;;-1.81;100.00;101755.09;10500968;28;20488;-83
2022/12/10 22:53:54;;;;;;;1.08;1.08;;;;;;;-1.75;100.00;101755.66;10468381;28;20052;-82
2022/12/10 22:58:57;;;;;;;1.15;0.65;;;;;;;-1.72;100.00;101755.91;10484582;28;20032;-83
2022/12/10 23:03:59;;;;;;;1.52;1.05;;;;;;;-1.76;100.00;101758.94;10481677;28;20054;-84
2022/12/10 23:09:01;;;;;;;0.30;0.30;;;;;;;-1.84;100.00;101760.75;10450835;28;20049;-83
2022/12/10 23:14:02;;;;;;;1.75;1.20;;;;;;;-1.88;100.00;101760.34;10457901;28;20074;-83
2022/12/10 23:19:07;;;;;;;0.30;0.30;;;;;;;-1.82;100.00;101753.31;10449933;28;20128;-83
2022/12/10 23:24:09;;;;;;;2.80;1.15;;;;;;;-1.78;100.00;101755.38;10462200;28;20052;-83
2022/12/10 23:29:12;;;;;;;1.55;1.08;;;;;;;-1.79;100.00;101758.66;10488740;28;20136;-83
2022/12/10 23:34:14;;;;;;;0.10;0.10;;;;;;;-1.72;100.00;101755.03;10488204;28;20055;-82
2022/12/10 23:39:16;;;;;;;4.60;2.42;;;;;;;-1.65;100.00;101763.28;10520540;28;20087;-83
2022/12/10 23:44:17;;;;;;;0.10;0.10;;;;;;;-1.68;100.00;101763.03;10500898;28;20476;-83
2022/12/10 23:49:20;;;;;;;1.75;0.82;;;;;;;-1.67;100.00;101759.72;10502069;28;20044;-82